Time;durP1;ratioP1;P1;durP2;ratioP2;P2;SDS_P1;SDS_P2;PMS_P1;PMS_P2;Temp;Humidity;BMP_temperature;BMP_pressure;BME280_temperature;BME280_humidity;BME280_pressure;Samples;Min_cycle;Max_cycle;Signal;HPM_P1;HPM_P2
2023/04/20 00:00:09;;;;;;;314.02;134.45;;;;;;;12.50;100.00;99145.91;296176;32;4978;-77
2023/04/20 00:00:20;;;;;;;309.40;125.07;;;;;;;12.51;100.00;99150.22;303515;32;1918;-77
2023/04/20 00:00:31;;;;;;;312.67;125.75;;;;;;;12.50;100.00;99157.25;300340;32;6741;-76
2023/04/20 00:00:42;;;;;;;313.98;127.13;;;;;;;12.50;100.00;99156.41;294906;33;6892;-77
2023/04/20 00:00:52;;;;;;;314.83;128.03;;;;;;;12.50;100.00;99154.63;291245;34;1218;-76
2023/04/20 00:01:03;;;;;;;309.80;126.95;;;;;;;12.48;100.00;99153.88;291021;33;6457;-76
2023/04/20 00:01:14;;;;;;;311.55;126.75;;;;;;;12.50;100.00;99152.00;292147;33;5886;-76
2023/04/20 00:01:24;;;;;;;313.02;127.47;;;;;;;12.51;100.00;99150.22;289947;33;3890;-76
2023/04/20 00:01:35;;;;;;;314.87;128.10;;;;;;;12.48;100.00;99151.25;289056;34;1488;-76
2023/04/20 00:01:46;;;;;;;312.52;127.65;;;;;;;12.48;100.00;99153.03;285130;34;5055;-76
2023/04/20 00:01:57;;;;;;;310.50;125.35;;;;;;;12.48;100.00;99147.78;284453;34;6789;-76
2023/04/20 00:02:08;;;;;;;309.33;123.55;;;;;;;12.47;100.00;99149.56;285554;34;1138;-76
2023/04/20 00:02:20;;;;;;;310.08;123.18;;;;;;;12.48;100.00;99148.63;280091;35;1247;-76
2023/04/20 00:02:30;;;;;;;312.33;125.10;;;;;;;12.48;100.00;99151.25;282318;34;13344;-77
2023/04/20 00:04:23;;;;;;;297.39;112.14;;;;;;;12.47;100.00;99151.34;2503429;27;20257;-77
2023/04/20 00:04:35;;;;;;;306.03;118.90;;;;;;;12.47;100.00;99151.34;351684;28;1230;-77
2023/04/20 00:04:45;;;;;;;306.20;120.38;;;;;;;12.47;100.00;99152.19;349741;28;1679;-77
2023/04/20 00:04:56;;;;;;;311.03;121.80;;;;;;;12.45;100.00;99147.94;348952;28;1379;-76
2023/04/20 00:05:06;;;;;;;314.13;123.20;;;;;;;12.48;100.00;99153.03;351112;28;1421;-76
2023/04/20 00:05:17;;;;;;;314.80;123.80;;;;;;;12.47;100.00;99148.72;349256;28;1243;-76
2023/04/20 00:05:28;;;;;;;311.33;124.67;;;;;;;12.46;100.00;99144.41;347564;28;925;-76
2023/04/20 00:05:39;;;;;;;309.75;123.13;;;;;;;12.46;100.00;99149.66;347725;28;880;-76
2023/04/20 00:05:49;;;;;;;309.73;122.93;;;;;;;12.48;100.00;99147.78;347582;28;1211;-76
2023/04/20 00:06:00;;;;;;;307.75;122.35;;;;;;;12.49;100.00;99144.22;346408;28;1204;-76
2023/04/20 00:06:11;;;;;;;308.92;123.07;;;;;;;12.47;100.00;99140.84;347747;28;880;-76
2023/04/20 00:06:21;;;;;;;308.87;121.43;;;;;;;12.47;100.00;99144.31;346542;28;1339;-76
2023/04/20 00:06:33;;;;;;;309.67;121.80;;;;;;;12.49;100.00;99152.09;348217;28;1318;-77
2023/04/20 00:06:43;;;;;;;309.27;122.68;;;;;;;12.48;100.00;99150.41;349570;28;1317;-77
2023/04/20 00:06:55;;;;;;;309.15;123.63;;;;;;;12.49;100.00;99146.84;348980;28;1226;-76
2023/04/20 00:07:06;;;;;;;310.55;123.28;;;;;;;12.48;100.00;99147.78;348876;28;895;-77
2023/04/20 00:07:16;;;;;;;310.02;121.32;;;;;;;12.48;100.00;99153.03;349029;28;876;-76
2023/04/20 00:07:28;;;;;;;309.37;122.03;;;;;;;12.43;100.00;99145.41;349035;28;1634;-76
2023/04/20 00:07:40;;;;;;;308.73;122.38;;;;;;;12.46;100.00;99147.03;350204;28;2089;-79
2023/04/20 00:07:51;;;;;;;308.50;120.47;;;;;;;12.45;100.00;99147.94;349226;28;1326;-78
2023/04/20 00:08:01;;;;;;;308.05;119.93;;;;;;;12.45;100.00;99143.56;350020;28;859;-77
2023/04/20 00:08:12;;;;;;;308.70;120.03;;;;;;;12.45;100.00;99142.69;351721;28;1116;-77
2023/04/20 00:08:22;;;;;;;309.75;121.47;;;;;;;12.45;100.00;99142.69;347678;28;1392;-77
2023/04/20 00:08:33;;;;;;;309.97;121.20;;;;;;;12.45;100.00;99154.03;346149;28;1293;-77
2023/04/20 00:08:43;;;;;;;309.67;121.03;;;;;;;12.45;100.00;99145.31;346170;28;1284;-77
2023/04/20 00:08:54;;;;;;;309.10;121.65;;;;;;;12.47;100.00;99143.47;347644;28;1228;-77
2023/04/20 00:09:04;;;;;;;307.17;119.97;;;;;;;12.45;100.00;99145.31;342210;28;960;-77
2023/04/20 00:09:15;;;;;;;311.63;120.47;;;;;;;12.46;100.00;99140.00;343613;28;856;-77
2023/04/20 00:09:26;;;;;;;310.20;119.28;;;;;;;12.42;100.00;99142.88;344213;28;1440;-77
2023/04/20 00:09:36;;;;;;;312.35;119.57;;;;;;;12.46;100.00;99141.78;342617;28;1721;-77
2023/04/20 00:09:46;;;;;;;311.97;119.47;;;;;;;12.46;100.00;99139.16;342799;28;847;-77
2023/04/20 00:09:57;;;;;;;314.20;120.47;;;;;;;12.45;100.00;99145.31;337897;29;1505;-76
2023/04/20 00:10:08;;;;;;;315.03;121.10;;;;;;;12.44;100.00;99146.25;343477;28;1297;-76
2023/04/20 00:10:18;;;;;;;311.45;120.10;;;;;;;12.48;100.00;99147.78;347136;28;849;-76
2023/04/20 00:10:29;;;;;;;311.37;121.13;;;;;;;12.46;100.00;99141.78;348099;28;1078;-76
2023/04/20 00:10:39;;;;;;;309.88;120.00;;;;;;;12.46;100.00;99140.00;347615;28;1461;-76
2023/04/20 00:10:50;;;;;;;310.25;119.97;;;;;;;12.46;100.00;99145.25;343670;28;1358;-77
2023/04/20 00:11:00;;;;;;;310.33;119.87;;;;;;;12.49;100.00;99142.44;343888;28;1238;-77
2023/04/20 00:11:11;;;;;;;309.45;120.40;;;;;;;12.47;100.00;99141.69;344961;28;829;-76
2023/04/20 00:11:21;;;;;;;309.03;120.17;;;;;;;12.49;100.00;99144.22;344255;28;1624;-76
2023/04/20 00:11:31;;;;;;;309.37;118.93;;;;;;;12.48;100.00;99145.16;340827;29;1194;-76
2023/04/20 00:11:42;;;;;;;310.50;118.93;;;;;;;12.47;100.00;99140.84;338303;29;1330;-76
2023/04/20 00:11:52;;;;;;;312.00;120.60;;;;;;;12.46;100.00;99144.41;338268;29;2069;-76
2023/04/20 00:12:03;;;;;;;311.25;122.00;;;;;;;12.45;100.00;99143.56;340104;29;960;-76
2023/04/20 00:12:13;;;;;;;311.50;123.50;;;;;;;12.46;100.00;99139.16;342392;28;1007;-76
2023/04/20 00:12:24;;;;;;;309.60;123.72;;;;;;;12.46;100.00;99139.16;343621;28;1265;-76
2023/04/20 00:12:34;;;;;;;312.53;125.90;;;;;;;12.48;100.00;99137.28;341941;28;1136;-76
2023/04/20 00:12:45;;;;;;;314.25;126.18;;;;;;;12.46;100.00;99139.16;341916;28;1479;-76
2023/04/20 00:12:55;;;;;;;316.20;125.13;;;;;;;12.49;100.00;99149.47;337967;29;1215;-76
2023/04/20 00:13:05;;;;;;;313.30;123.47;;;;;;;12.47;100.00;99146.09;339631;29;1703;-77
2023/04/20 00:13:16;;;;;;;309.53;122.83;;;;;;;12.46;100.00;99139.16;340560;28;1918;-77
2023/04/20 00:13:26;;;;;;;309.58;122.90;;;;;;;12.47;100.00;99140.84;339736;29;870;-77
2023/04/20 00:13:37;;;;;;;312.13;122.37;;;;;;;12.48;100.00;99139.91;338208;29;921;-76
2023/04/20 00:13:47;;;;;;;312.00;120.63;;;;;;;12.49;100.00;99141.59;335434;29;1275;-76
2023/04/20 00:13:57;;;;;;;313.33;121.90;;;;;;;12.48;100.00;99142.53;335446;29;1317;-76
2023/04/20 00:14:08;;;;;;;313.60;123.50;;;;;;;12.48;100.00;99147.78;334504;29;766;-76
2023/04/20 00:14:18;;;;;;;314.83;125.40;;;;;;;12.47;100.00;99136.44;332791;29;1404;-77
2023/04/20 00:14:29;;;;;;;314.70;124.15;;;;;;;12.44;100.00;99138.38;333003;29;1474;-76
2023/04/20 00:14:39;;;;;;;314.33;124.07;;;;;;;12.47;100.00;99141.69;335238;29;1679;-76
2023/04/20 00:14:50;;;;;;;315.60;124.97;;;;;;;12.44;100.00;99136.59;332090;29;2041;-76
2023/04/20 00:15:01;;;;;;;316.37;125.30;;;;;;;12.42;100.00;99121.88;329816;29;2064;-77
2023/04/20 00:15:11;;;;;;;315.35;124.03;;;;;;;12.45;100.00;99142.69;330737;29;1193;-77
2023/04/20 00:15:21;;;;;;;314.13;123.10;;;;;;;12.46;100.00;99136.53;331655;29;2263;-77
2023/04/20 00:15:33;;;;;;;311.10;123.03;;;;;;;12.44;100.00;99136.59;330358;29;1602;-77
2023/04/20 00:15:44;;;;;;;309.10;123.25;;;;;;;12.46;100.00;99133.91;330753;29;1459;-77
2023/04/20 00:15:54;;;;;;;310.40;124.80;;;;;;;12.42;100.00;99132.38;329840;29;1294;-77
2023/04/20 00:16:05;;;;;;;313.67;125.87;;;;;;;12.44;100.00;99138.38;329665;29;1237;-77
2023/04/20 00:16:15;;;;;;;315.52;125.82;;;;;;;12.43;100.00;99134.91;329709;29;1845;-76
2023/04/20 00:16:26;;;;;;;314.75;123.95;;;;;;;12.45;100.00;99134.81;329336;29;1700;-76
2023/04/20 00:16:36;;;;;;;313.60;122.47;;;;;;;12.43;100.00;99137.53;327038;30;2200;-76
2023/04/20 00:16:47;;;;;;;310.77;120.88;;;;;;;12.43;100.00;99136.69;323937;30;2197;-76
2023/04/20 00:16:57;;;;;;;311.08;119.82;;;;;;;12.43;100.00;99132.28;320184;30;1991;-76
2023/04/20 00:17:08;;;;;;;311.37;121.93;;;;;;;12.42;100.00;99133.22;319915;30;1289;-76
2023/04/20 00:17:18;;;;;;;313.20;123.72;;;;;;;12.45;100.00;99143.56;320334;30;2712;-76
2023/04/20 00:17:29;;;;;;;313.87;124.93;;;;;;;12.45;100.00;99142.69;318463;30;2934;-76
2023/04/20 00:17:40;;;;;;;312.13;125.25;;;;;;;12.43;100.00;99140.16;316403;31;1346;-78
2023/04/20 00:17:51;;;;;;;309.83;123.95;;;;;;;12.43;100.00;99139.31;320874;30;2018;-76
2023/04/20 00:18:01;;;;;;;308.38;123.72;;;;;;;12.42;100.00;99133.22;317490;31;1491;-77
2023/04/20 00:18:11;;;;;;;309.53;122.43;;;;;;;12.44;100.00;99135.75;318600;30;1303;-77
2023/04/20 00:18:22;;;;;;;313.40;124.13;;;;;;;12.43;100.00;99139.31;319898;30;2781;-77
2023/04/20 00:18:32;;;;;;;316.52;124.65;;;;;;;12.44;100.00;99141.00;315735;31;2565;-77
2023/04/20 00:18:45;;;;;;;318.23;127.30;;;;;;;12.42;100.00;99132.38;314534;31;3032;-77
2023/04/20 00:18:55;;;;;;;316.42;128.02;;;;;;;12.44;100.00;99138.38;312930;31;1534;-77
2023/04/20 00:19:08;;;;;;;313.83;126.20;;;;;;;12.45;100.00;99137.44;312748;31;3169;-77
2023/04/20 00:19:21;;;;;;;314.77;124.65;;;;;;;12.45;100.00;99127.81;314047;31;2973;-77
2023/04/20 00:19:32;;;;;;;315.88;121.97;;;;;;;12.45;100.00;99142.69;315282;31;3094;-78
2023/04/20 00:19:42;;;;;;;319.15;124.30;;;;;;;12.43;100.00;99137.53;312697;31;1535;-77
2023/04/20 00:19:52;;;;;;;318.40;124.17;;;;;;;12.43;100.00;99134.06;306475;32;1408;-77
2023/04/20 00:20:04;;;;;;;317.90;125.13;;;;;;;12.42;100.00;99132.38;306560;32;2181;-77
2023/04/20 00:20:14;;;;;;;315.90;124.88;;;;;;;12.43;100.00;99134.06;308113;31;1888;-77
2023/04/20 00:20:25;;;;;;;312.35;124.22;;;;;;;12.41;100.00;99130.69;306250;32;1755;-77
2023/04/20 00:20:35;;;;;;;311.47;124.10;;;;;;;12.44;100.00;99138.38;306822;32;2645;-77
2023/04/20 00:20:46;;;;;;;309.83;121.57;;;;;;;12.42;100.00;99140.25;303938;32;3745;-77
2023/04/20 00:20:56;;;;;;;310.27;123.10;;;;;;;12.42;100.00;99142.88;303461;32;1446;-77
2023/04/20 00:21:08;;;;;;;309.55;123.13;;;;;;;12.42;100.00;99130.59;304224;32;5048;-77
2023/04/20 00:21:22;;;;;;;313.02;126.30;;;;;;;12.41;100.00;99135.94;302401;32;5309;-77
2023/04/20 00:21:33;;;;;;;314.52;125.13;;;;;;;12.42;100.00;99140.25;299274;32;4757;-77
2023/04/20 00:21:44;;;;;;;313.60;124.40;;;;;;;12.41;100.00;99146.44;297378;32;3392;-77
2023/04/20 00:21:54;;;;;;;315.47;125.30;;;;;;;12.40;100.00;99142.09;295126;33;1231;-77
2023/04/20 00:22:05;;;;;;;314.02;125.35;;;;;;;12.39;100.00;99132.53;295942;33;3315;-77
2023/04/20 00:22:15;;;;;;;314.60;126.57;;;;;;;12.38;100.00;99136.09;295486;33;2360;-76
2023/04/20 00:22:27;;;;;;;312.58;126.28;;;;;;;12.36;100.00;99132.72;295133;33;1309;-77
2023/04/20 00:22:37;;;;;;;314.85;126.18;;;;;;;12.37;100.00;99139.66;290262;33;3559;-77
2023/04/20 00:22:47;;;;;;;313.00;124.00;;;;;;;12.35;100.00;99131.03;290273;33;3881;-77
2023/04/20 00:22:58;;;;;;;314.50;124.77;;;;;;;12.36;100.00;99135.34;289506;34;5486;-77
2023/04/20 00:23:08;;;;;;;312.65;124.88;;;;;;;12.37;100.00;99139.66;286471;34;1378;-77
2023/04/20 00:23:19;;;;;;;313.03;125.67;;;;;;;12.38;100.00;99138.72;282918;34;6992;-77
2023/04/20 00:23:29;;;;;;;313.48;126.28;;;;;;;12.39;100.00;99136.00;283298;34;7219;-77
2023/04/20 00:23:40;;;;;;;315.03;126.87;;;;;;;12.40;100.00;99136.84;282888;35;1064;-77
2023/04/20 00:23:51;;;;;;;316.17;125.78;;;;;;;12.38;100.00;99138.72;280363;35;6541;-77
2023/04/20 00:24:01;;;;;;;313.88;123.40;;;;;;;12.38;100.00;99138.72;279267;34;5329;-77
2023/04/20 00:24:11;;;;;;;312.30;123.00;;;;;;;12.37;100.00;99134.41;279869;35;1673;-77
2023/04/20 00:24:22;;;;;;;310.20;123.10;;;;;;;12.39;100.00;99143.03;279395;35;5026;-77
2023/04/20 00:24:32;;;;;;;312.23;124.33;;;;;;;12.36;100.00;99133.56;278678;35;4052;-77
2023/04/20 00:24:43;;;;;;;310.83;124.25;;;;;;;12.39;100.00;99140.41;273635;35;5010;-78
2023/04/20 00:24:53;;;;;;;312.30;125.80;;;;;;;12.38;100.00;99138.72;274935;36;895;-78
2023/04/20 00:25:04;;;;;;;311.60;124.27;;;;;;;12.37;100.00;99137.03;274498;35;7344;-77
2023/04/20 00:25:15;;;;;;;309.34;121.96;;;;;;;12.37;100.00;99135.25;271615;35;9372;-77
2023/04/20 00:25:25;;;;;;;306.67;120.40;;;;;;;12.35;100.00;99136.28;272279;36;1200;-77
2023/04/20 00:27:29;;;;;;;299.79;113.87;;;;;;;12.33;100.00;99129.31;2497093;27;20471;-77
2023/04/20 00:27:40;;;;;;;305.17;117.60;;;;;;;12.33;100.00;99131.94;353084;28;1676;-77
2023/04/20 00:27:50;;;;;;;304.70;117.70;;;;;;;12.32;100.00;99138.13;350321;28;1366;-77
2023/04/20 00:28:01;;;;;;;304.77;119.03;;;;;;;12.32;100.00;99138.13;347471;28;1203;-77
2023/04/20 00:28:11;;;;;;;304.90;119.32;;;;;;;12.29;100.00;99133.06;349085;28;895;-77
2023/04/20 00:28:21;;;;;;;307.63;121.10;;;;;;;12.27;100.00;99129.66;350429;28;1279;-77
2023/04/20 00:28:32;;;;;;;309.37;120.33;;;;;;;12.28;100.00;99131.34;347605;28;1182;-77
2023/04/20 00:28:42;;;;;;;308.30;119.50;;;;;;;12.30;100.00;99132.13;347975;28;1351;-77
2023/04/20 00:28:53;;;;;;;309.23;119.43;;;;;;;12.29;100.00;99133.06;348482;28;1491;-76
2023/04/20 00:29:03;;;;;;;311.00;121.20;;;;;;;12.27;100.00;99129.66;348086;28;1576;-76
2023/04/20 00:29:14;;;;;;;312.53;122.73;;;;;;;12.28;100.00;99128.72;345795;28;1345;-76
2023/04/20 00:29:24;;;;;;;312.98;123.50;;;;;;;12.32;100.00;99132.88;348328;28;1422;-76
2023/04/20 00:29:35;;;;;;;313.33;123.50;;;;;;;12.25;100.00;99121.03;350348;28;1187;-76
2023/04/20 00:29:45;;;;;;;313.45;123.07;;;;;;;12.28;100.00;99126.13;348949;28;1213;-77
2023/04/20 00:29:55;;;;;;;312.60;122.73;;;;;;;12.29;100.00;99132.19;348950;28;1438;-79
2023/04/20 00:30:06;;;;;;;309.33;121.72;;;;;;;12.30;100.00;99137.38;347561;28;982;-77
2023/04/20 00:30:17;;;;;;;306.13;120.53;;;;;;;12.29;100.00;99133.06;347615;28;946;-76
2023/04/20 00:30:27;;;;;;;305.13;119.97;;;;;;;12.30;100.00;99129.50;349078;28;793;-76
2023/04/20 00:30:37;;;;;;;303.93;119.53;;;;;;;12.29;100.00;99130.44;349017;28;1523;-76
2023/04/20 00:30:48;;;;;;;306.50;120.93;;;;;;;12.29;100.00;99133.06;347685;28;1621;-77
2023/04/20 00:30:58;;;;;;;307.83;121.83;;;;;;;12.31;100.00;99131.19;349603;28;1216;-76
2023/04/20 00:31:09;;;;;;;314.38;123.00;;;;;;;12.28;100.00;99130.50;351505;28;1406;-77
2023/04/20 00:31:19;;;;;;;316.47;123.00;;;;;;;12.31;100.00;99125.09;348806;28;1430;-77
2023/04/20 00:31:30;;;;;;;316.30;122.13;;;;;;;12.32;100.00;99129.41;350345;28;1320;-76
2023/04/20 00:31:41;;;;;;;309.92;118.75;;;;;;;12.31;100.00;99131.19;351650;28;1285;-76
2023/04/20 00:31:51;;;;;;;311.70;118.63;;;;;;;12.31;100.00;99131.19;349925;28;1205;-76
2023/04/20 00:32:03;;;;;;;311.48;118.68;;;;;;;12.32;100.00;99135.50;348936;28;1366;-76
2023/04/20 00:32:13;;;;;;;310.80;120.32;;;;;;;12.26;100.00;99124.50;348938;28;1354;-76
2023/04/20 00:32:24;;;;;;;307.73;119.90;;;;;;;12.33;100.00;99139.81;348431;28;1330;-76
2023/04/20 00:32:34;;;;;;;308.98;120.72;;;;;;;12.32;100.00;99132.88;350305;28;1442;-76
2023/04/20 00:32:45;;;;;;;310.00;120.90;;;;;;;12.34;100.00;99132.78;348107;28;1036;-76
2023/04/20 00:32:55;;;;;;;309.83;120.68;;;;;;;12.34;100.00;99130.16;345781;28;1687;-76
2023/04/20 00:33:06;;;;;;;308.53;119.53;;;;;;;12.35;100.00;99137.13;344933;28;1741;-76
2023/04/20 00:33:16;;;;;;;305.13;118.88;;;;;;;12.32;100.00;99132.88;343371;28;1262;-77
2023/04/20 00:33:26;;;;;;;305.87;119.37;;;;;;;12.31;100.00;99133.81;341883;28;1943;-76
2023/04/20 00:33:37;;;;;;;306.43;119.80;;;;;;;12.32;100.00;99126.78;344286;28;1257;-76
2023/04/20 00:33:47;;;;;;;306.70;120.13;;;;;;;12.32;100.00;99132.88;347630;28;1305;-78
2023/04/20 00:33:58;;;;;;;307.17;119.57;;;;;;;12.33;100.00;99136.34;343678;28;1129;-78
2023/04/20 00:34:08;;;;;;;306.52;119.45;;;;;;;12.33;100.00;99137.19;340753;29;1221;-77
2023/04/20 00:34:19;;;;;;;309.97;121.23;;;;;;;12.31;100.00;99131.19;338162;29;1376;-76
2023/04/20 00:34:29;;;;;;;311.20;122.38;;;;;;;12.30;100.00;99129.50;340890;29;992;-76
2023/04/20 00:34:40;;;;;;;310.50;120.97;;;;;;;12.35;100.00;99137.13;340969;29;886;-76
2023/04/20 00:34:50;;;;;;;311.00;121.97;;;;;;;12.29;100.00;99127.81;340286;29;2229;-76
2023/04/20 00:35:01;;;;;;;311.60;123.23;;;;;;;12.33;100.00;99134.56;337231;29;829;-76
2023/04/20 00:35:11;;;;;;;313.27;125.65;;;;;;;12.30;100.00;99124.25;339114;28;1386;-76
2023/04/20 00:35:21;;;;;;;311.07;123.93;;;;;;;12.32;100.00;99134.66;338777;28;1455;-76
2023/04/20 00:35:32;;;;;;;308.45;121.07;;;;;;;12.29;100.00;99126.97;339500;29;1430;-76
2023/04/20 00:35:42;;;;;;;314.00;120.00;;;;;;;12.31;100.00;99136.44;342678;28;1370;-77
2023/04/20 00:35:53;;;;;;;316.75;118.55;;;;;;;12.32;100.00;99127.63;340465;28;1248;-77
2023/04/20 00:36:03;;;;;;;317.87;119.90;;;;;;;12.32;100.00;99137.28;340721;29;1527;-76
2023/04/20 00:36:13;;;;;;;310.98;119.70;;;;;;;12.24;100.00;99124.59;339486;29;1394;-76
2023/04/20 00:36:24;;;;;;;312.83;122.07;;;;;;;12.31;100.00;99132.97;337387;29;1979;-76
2023/04/20 00:36:34;;;;;;;311.73;121.57;;;;;;;12.29;100.00;99127.81;335971;29;1029;-77
2023/04/20 00:36:45;;;;;;;310.50;122.55;;;;;;;12.29;100.00;99127.81;334362;29;1433;-77
2023/04/20 00:36:55;;;;;;;311.67;123.20;;;;;;;12.28;100.00;99126.13;334880;29;1410;-77
2023/04/20 00:37:05;;;;;;;311.83;123.20;;;;;;;12.30;100.00;99132.13;334311;29;1282;-77
2023/04/20 00:37:16;;;;;;;311.70;123.00;;;;;;;12.28;100.00;99126.13;334422;29;1363;-77
2023/04/20 00:37:27;;;;;;;309.00;123.05;;;;;;;12.29;100.00;99127.81;334201;29;1446;-77
2023/04/20 00:37:37;;;;;;;311.38;124.80;;;;;;;12.25;100.00;99121.03;331627;29;1890;-77
2023/04/20 00:37:48;;;;;;;311.47;123.63;;;;;;;12.27;100.00;99129.66;333165;29;907;-77
2023/04/20 00:37:58;;;;;;;312.23;122.18;;;;;;;12.27;100.00;99129.66;328836;29;1977;-77
2023/04/20 00:38:09;;;;;;;312.20;121.90;;;;;;;12.23;100.00;99129.91;324804;30;1869;-77
2023/04/20 00:38:19;;;;;;;311.33;121.15;;;;;;;12.24;100.00;99129.00;321855;30;2263;-77
2023/04/20 00:38:29;;;;;;;310.53;121.97;;;;;;;12.25;100.00;99133.31;319935;30;1028;-76
2023/04/20 00:38:40;;;;;;;308.20;119.65;;;;;;;12.24;100.00;99129.84;322769;30;1644;-76
2023/04/20 00:38:50;;;;;;;309.70;120.70;;;;;;;12.24;100.00;99129.84;323491;30;1266;-76
2023/04/20 00:39:01;;;;;;;308.17;120.60;;;;;;;12.24;100.00;99135.09;328283;30;1944;-76
2023/04/20 00:39:11;;;;;;;311.87;121.90;;;;;;;12.24;100.00;99129.84;326241;30;1532;-77
2023/04/20 00:39:22;;;;;;;311.10;121.47;;;;;;;12.23;100.00;99132.53;325143;30;1810;-77
2023/04/20 00:39:32;;;;;;;314.13;121.80;;;;;;;12.22;100.00;99130.84;322172;30;1291;-77
2023/04/20 00:39:42;;;;;;;312.27;123.43;;;;;;;12.22;100.00;99131.69;318493;30;2277;-77
2023/04/20 00:39:54;;;;;;;312.15;123.82;;;;;;;12.22;100.00;99129.06;322465;30;2272;-77
2023/04/20 00:40:05;;;;;;;309.70;122.07;;;;;;;12.22;100.00;99130.84;325104;30;2502;-77
2023/04/20 00:40:16;;;;;;;309.63;121.03;;;;;;;12.20;100.00;99130.09;325715;30;1223;-77
2023/04/20 00:40:26;;;;;;;311.37;122.57;;;;;;;12.21;100.00;99130.00;322735;30;2575;-77
2023/04/20 00:40:36;;;;;;;310.75;121.70;;;;;;;12.20;100.00;99128.31;325411;29;2490;-77
2023/04/20 00:40:51;;;;;;;310.53;121.77;;;;;;;12.21;100.00;99132.63;329369;30;1253;-77
2023/04/20 00:41:02;;;;;;;308.10;121.22;;;;;;;12.22;100.00;99122.97;322242;30;881;-77
2023/04/20 00:41:12;;;;;;;306.52;119.55;;;;;;;12.21;100.00;99127.38;320769;30;1346;-77
2023/04/20 00:41:23;;;;;;;306.07;119.57;;;;;;;12.21;100.00;99130.00;320220;30;2268;-77
2023/04/20 00:41:33;;;;;;;311.27;121.23;;;;;;;12.20;100.00;99130.94;318701;31;794;-77
2023/04/20 00:41:43;;;;;;;313.05;123.95;;;;;;;12.22;100.00;99126.44;319812;30;1104;-77
2023/04/20 00:41:54;;;;;;;316.33;125.50;;;;;;;12.23;100.00;99132.53;320228;30;3086;-77
2023/04/20 00:42:08;;;;;;;313.42;126.03;;;;;;;12.22;100.00;99126.44;319314;30;3427;-77
2023/04/20 00:42:18;;;;;;;311.33;124.63;;;;;;;12.23;100.00;99133.38;317499;31;754;-77
2023/04/20 00:42:28;;;;;;;309.70;123.63;;;;;;;12.23;100.00;99138.63;317924;30;3550;-77
2023/04/20 00:42:40;;;;;;;312.00;123.23;;;;;;;12.21;100.00;99130.00;317675;30;3177;-77
2023/04/20 00:42:51;;;;;;;312.75;122.13;;;;;;;12.21;100.00;99129.16;318677;30;3131;-77
2023/04/20 00:43:13;;;;;;;313.20;121.72;;;;;;;12.20;100.00;99132.72;316361;31;1324;-77
2023/04/20 00:43:24;;;;;;;305.98;121.03;;;;;;;12.19;100.00;99126.63;315225;31;2285;-77
2023/04/20 00:43:34;;;;;;;304.63;118.80;;;;;;;12.18;100.00;99127.53;312283;31;2710;-77
2023/04/20 00:43:51;;;;;;;306.95;120.80;;;;;;;12.19;100.00;99131.00;307788;31;1288;-77
2023/04/20 00:44:02;;;;;;;309.17;122.50;;;;;;;12.18;100.00;99129.31;307545;32;1294;-77
2023/04/20 00:44:13;;;;;;;307.63;121.40;;;;;;;12.18;100.00;99130.16;306839;31;4319;-77
2023/04/20 00:44:23;;;;;;;307.75;121.93;;;;;;;12.17;100.00;99128.47;305694;32;5485;-77
2023/04/20 00:44:33;;;;;;;307.80;122.93;;;;;;;12.18;100.00;99130.16;301810;32;1696;-77
2023/04/20 00:44:44;;;;;;;308.52;123.07;;;;;;;12.17;100.00;99128.47;299701;32;1752;-77
2023/04/20 00:44:54;;;;;;;309.43;123.37;;;;;;;12.17;100.00;99133.72;297729;32;4312;-77
2023/04/20 00:45:05;;;;;;;308.10;121.63;;;;;;;12.17;100.00;99128.47;295743;32;4371;-77
2023/04/20 00:45:15;;;;;;;309.15;123.45;;;;;;;12.13;100.00;99121.69;297426;33;2064;-77
2023/04/20 00:45:26;;;;;;;314.60;123.70;;;;;;;12.15;100.00;99125.09;295421;33;3414;-77
2023/04/20 00:45:37;;;;;;;318.20;125.15;;;;;;;12.16;100.00;99134.66;294287;33;3151;-77
2023/04/20 00:45:47;;;;;;;320.67;124.83;;;;;;;12.14;100.00;99126.03;294207;33;1036;-77
2023/04/20 00:45:57;;;;;;;315.67;124.30;;;;;;;12.15;100.00;99132.13;290220;33;4126;-77
2023/04/20 00:46:08;;;;;;;312.33;123.73;;;;;;;12.15;100.00;99124.25;288538;34;4853;-77
2023/04/20 00:46:21;;;;;;;308.75;122.85;;;;;;;12.14;100.00;99122.56;287725;34;2103;-76
2023/04/20 00:46:31;;;;;;;309.25;122.10;;;;;;;12.15;100.00;99134.75;284543;34;1140;-77
2023/04/20 00:46:42;;;;;;;312.03;123.07;;;;;;;12.15;100.00;99126.88;286963;34;7255;-77
2023/04/20 00:46:55;;;;;;;311.35;124.18;;;;;;;12.14;100.00;99139.13;285691;34;7377;-76
2023/04/20 00:47:06;;;;;;;309.08;124.05;;;;;;;12.13;100.00;99132.19;282478;34;5553;-77
2023/04/20 00:47:17;;;;;;;307.17;122.95;;;;;;;12.14;100.00;99136.50;280710;35;1238;-77
2023/04/20 00:47:27;;;;;;;307.97;121.47;;;;;;;12.11;100.00;99128.84;278976;35;5871;-77
2023/04/20 00:47:38;;;;;;;310.33;122.83;;;;;;;12.13;100.00;99137.44;279756;34;5095;-77
2023/04/20 00:47:48;;;;;;;311.30;122.63;;;;;;;12.12;100.00;99133.16;280120;35;1244;-77
2023/04/20 00:47:58;;;;;;;310.73;123.93;;;;;;;12.13;100.00;99137.44;280970;35;5134;-77
2023/04/20 00:48:09;;;;;;;308.48;121.57;;;;;;;12.11;100.00;99128.00;276145;35;5835;-77
2023/04/20 00:48:19;;;;;;;308.23;122.30;;;;;;;12.12;100.00;99133.16;273320;35;7122;-77
2023/04/20 00:48:30;;;;;;;307.98;121.22;;;;;;;12.11;100.00;99136.72;276512;35;1445;-77
2023/04/20 00:48:40;;;;;;;309.67;122.30;;;;;;;12.12;100.00;99129.69;272759;35;9363;-77
2023/04/20 00:48:51;;;;;;;311.38;121.88;;;;;;;12.11;100.00;99135.88;271898;35;9291;-77
2023/04/20 00:49:01;;;;;;;311.50;121.73;;;;;;;12.12;100.00;99138.41;274823;36;920;-77
2023/04/20 00:49:12;;;;;;;312.63;121.80;;;;;;;12.11;100.00;99134.09;273066;35;10527;-77
2023/04/20 00:50:53;;;;;;;300.61;113.85;;;;;;;12.11;100.00;99139.34;2499652;27;20268;-77
2023/04/20 00:51:04;;;;;;;306.30;119.67;;;;;;;12.11;100.00;99144.59;353116;28;1318;-76
2023/04/20 00:51:14;;;;;;;307.73;120.55;;;;;;;12.10;100.00;99136.78;350329;28;1298;-76
2023/04/20 00:51:25;;;;;;;308.83;121.93;;;;;;;12.10;100.00;99132.41;347671;28;1199;-76
2023/04/20 00:51:35;;;;;;;308.02;121.45;;;;;;;12.09;100.00;99135.94;349157;28;1135;-76
2023/04/20 00:51:46;;;;;;;307.23;119.83;;;;;;;12.09;100.00;99135.94;347564;28;1316;-76
2023/04/20 00:51:59;;;;;;;306.13;117.20;;;;;;;12.10;100.00;99132.41;348878;28;1463;-76
2023/04/20 00:52:10;;;;;;;305.20;116.78;;;;;;;12.09;100.00;99135.09;349173;28;947;-76
2023/04/20 00:52:20;;;;;;;305.57;119.03;;;;;;;12.05;100.00;99123.09;347588;28;1370;-76
2023/04/20 00:52:31;;;;;;;309.70;122.33;;;;;;;12.07;100.00;99129.94;348069;28;1179;-76
2023/04/20 00:52:41;;;;;;;310.73;122.67;;;;;;;12.08;100.00;99131.63;350315;28;1282;-76
2023/04/20 00:52:52;;;;;;;309.70;120.45;;;;;;;12.08;100.00;99133.41;348871;28;1316;-76
2023/04/20 00:53:02;;;;;;;308.13;120.20;;;;;;;12.07;100.00;99137.81;346350;28;982;-76
2023/04/20 00:53:12;;;;;;;309.70;121.47;;;;;;;12.06;100.00;99135.28;347566;28;938;-76
2023/04/20 00:53:23;;;;;;;309.60;122.47;;;;;;;12.08;100.00;99143.91;348205;28;1760;-76
2023/04/20 00:53:33;;;;;;;308.90;121.97;;;;;;;12.09;100.00;99135.94;346257;28;1306;-76
2023/04/20 00:53:44;;;;;;;306.65;120.60;;;;;;;12.08;100.00;99130.78;347738;28;884;-76
2023/04/20 00:53:54;;;;;;;309.03;120.70;;;;;;;12.09;100.00;99138.56;346232;28;890;-76